Thornwood, New York
Current Conditions -  °F | °C
As of 2:56 AM on Tuesday 27 Jan 2015 (Local Time) from KHPN Reporting Station
Light Snow Light Snow  
Wind Chill:   Ceiling: 300
Heat Index: 20°   Visibility: 0.75mi
Dew Point: 17°   Wind: 13mph
Humidity: 89%   Direction: 340°NNW
Pressure: 29.64"   Gusts: NA
Location:  41.12°N, 73.77°W
Report Text: KHPN 270756Z 34011KT 3/4SM R16/4500VP6000FT -SN BR VV003 M07/M08 A2964 RMK AO2 SLP049 P0000 T10671083
Loading
Personal Weather Stations






























Interactive Weather Map New forecast layout! Learn more

10-Day Weather Forecast

Advertisements
Track Severe Weather on mobile